<?xml version="1.0" encoding="UTF-8"?>
<gpx
  version="1.0"
  creator="GPSBabel - http://www.gpsbabel.org"
  xmlns:xsi="http://www.w3.org/2001/XMLSchema-instance"
  xmlns="http://www.topografix.com/GPX/1/0"
  xsi:schemaLocation="http://www.topografix.com/GPX/1/0 http://www.topografix.com/GPX/1/0/gpx.xsd">
<time>2018-07-24T18:23:09Z</time>
<bounds minlat="53.832463702" minlon="-1.871787994" maxlat="53.848294396" maxlon="-1.838363884"/>
<trk>
  <name>05bis - St Ives and Black Hills</name>
<trkseg>
<trkpt lat="53.847888140" lon="-1.838717198">
  <ele>94.443470</ele>
  <time>2016-07-20T23:30:10.975Z</time>
  <name>WPT 001</name>
</trkpt>
<trkpt lat="53.848260759" lon="-1.839098813">
  <ele>92.334110</ele>
  <time>2016-07-20T23:30:13.274Z</time>
  <name>WPT 002</name>
</trkpt>
<trkpt lat="53.848261674" lon="-1.839782822">
  <ele>91.318284</ele>
  <time>2016-07-20T23:30:15.580Z</time>
  <name>WPT 003</name>
</trkpt>
<trkpt lat="53.848294396" lon="-1.840056303">
  <ele>90.703230</ele>
  <time>2016-07-20T23:30:17.554Z</time>
  <name>WPT 004</name>
</trkpt>
<trkpt lat="53.847971155" lon="-1.840303778">
  <ele>92.344035</ele>
  <time>2016-07-20T23:30:19.456Z</time>
  <name>WPT 005</name>
</trkpt>
<trkpt lat="53.847324489" lon="-1.840661918">
  <ele>94.037614</ele>
  <time>2016-07-20T23:30:23.740Z</time>
  <name>WPT 006</name>
</trkpt>
<trkpt lat="53.846548830" lon="-1.841348849">
  <ele>89.122248</ele>
  <time>2016-07-20T23:30:25.905Z</time>
  <name>WPT 007</name>
</trkpt>
<trkpt lat="53.845159031" lon="-1.842530519">
  <ele>83.707478</ele>
  <time>2016-07-20T23:30:28.647Z</time>
  <name>WPT 008</name>
</trkpt>
<trkpt lat="53.845110675" lon="-1.842667493">
  <ele>84.572076</ele>
  <time>2016-07-20T23:30:36.095Z</time>
  <name>WPT 009</name>
</trkpt>
<trkpt lat="53.845338212" lon="-1.843460040">
  <ele>88.509263</ele>
  <time>2016-07-20T23:30:38.321Z</time>
  <name>WPT 010</name>
</trkpt>
<trkpt lat="53.845338782" lon="-1.843897776">
  <ele>93.403338</ele>
  <time>2016-07-20T23:30:40.217Z</time>
  <name>WPT 011</name>
</trkpt>
<trkpt lat="53.845241960" lon="-1.844089646">
  <ele>95.341188</ele>
  <time>2016-07-20T23:30:41.680Z</time>
  <name>WPT 012</name>
</trkpt>
<trkpt lat="53.845355777" lon="-1.844526961">
  <ele>100.448443</ele>
  <time>2016-07-20T23:30:43.514Z</time>
  <name>WPT 013</name>
</trkpt>
<trkpt lat="53.845452954" lon="-1.844608677">
  <ele>101.449316</ele>
  <time>2016-07-20T23:30:50.731Z</time>
  <name>WPT 014</name>
</trkpt>
<trkpt lat="53.845760664" lon="-1.844853768">
  <ele>104.902208</ele>
  <time>2016-07-20T23:30:52.233Z</time>
  <name>WPT 015</name>
</trkpt>
<trkpt lat="53.845890480" lon="-1.845154237">
  <ele>107.552152</ele>
  <time>2016-07-20T23:30:53.767Z</time>
  <name>WPT 016</name>
</trkpt>
<trkpt lat="53.845971725" lon="-1.845427527">
  <ele>109.665933</ele>
  <time>2016-07-20T23:30:55.171Z</time>
  <name>WPT 017</name>
</trkpt>
<trkpt lat="53.846230792" lon="-1.845590728">
  <ele>112.572956</ele>
  <time>2016-07-20T23:30:56.749Z</time>
  <name>WPT 018</name>
</trkpt>
<trkpt lat="53.846473926" lon="-1.845945505">
  <ele>117.673038</ele>
  <time>2016-07-20T23:30:58.271Z</time>
  <name>WPT 019</name>
</trkpt>
<trkpt lat="53.846474067" lon="-1.846054942">
  <ele>118.739771</ele>
  <time>2016-07-20T23:30:59.955Z</time>
  <name>WPT 020</name>
</trkpt>
<trkpt lat="53.846571383" lon="-1.846246101">
  <ele>121.585146</ele>
  <time>2016-07-20T23:31:01.903Z</time>
  <name>WPT 021</name>
</trkpt>
<trkpt lat="53.846393770" lon="-1.846520345">
  <ele>122.053793</ele>
  <time>2016-07-20T23:31:03.295Z</time>
  <name>WPT 022</name>
</trkpt>
<trkpt lat="53.846200432" lon="-1.847150313">
  <ele>122.488270</ele>
  <time>2016-07-20T23:31:05.189Z</time>
  <name>WPT 023</name>
</trkpt>
<trkpt lat="53.846120304" lon="-1.847752506">
  <ele>123.416397</ele>
  <time>2016-07-20T23:31:06.764Z</time>
  <name>WPT 024</name>
</trkpt>
<trkpt lat="53.846185469" lon="-1.848107939">
  <ele>126.061484</ele>
  <time>2016-07-20T23:31:08.374Z</time>
  <name>WPT 025</name>
</trkpt>
<trkpt lat="53.846494274" lon="-1.849228556">
  <ele>134.472329</ele>
  <time>2016-07-20T23:31:10.502Z</time>
  <name>WPT 026</name>
</trkpt>
<trkpt lat="53.846543222" lon="-1.849556693">
  <ele>136.014745</ele>
  <time>2016-07-20T23:31:13.746Z</time>
  <name>WPT 027</name>
</trkpt>
<trkpt lat="53.846495576" lon="-1.850268207">
  <ele>135.672745</ele>
  <time>2016-07-20T23:31:15.812Z</time>
  <name>WPT 028</name>
</trkpt>
<trkpt lat="53.846125069" lon="-1.851555408">
  <ele>130.810191</ele>
  <time>2016-07-20T23:31:17.888Z</time>
  <name>WPT 029</name>
</trkpt>
<trkpt lat="53.845721788" lon="-1.852514396">
  <ele>126.722592</ele>
  <time>2016-07-20T23:31:20.422Z</time>
  <name>WPT 030</name>
</trkpt>
<trkpt lat="53.845060643" lon="-1.854295018">
  <ele>128.495148</ele>
  <time>2016-07-20T23:31:22.618Z</time>
  <name>WPT 031</name>
</trkpt>
<trkpt lat="53.844351558" lon="-1.856595550">
  <ele>133.389165</ele>
  <time>2016-07-20T23:31:28.158Z</time>
  <name>WPT 032</name>
</trkpt>
<trkpt lat="53.844659635" lon="-1.857169018">
  <ele>136.562247</ele>
  <time>2016-07-20T23:31:45.143Z</time>
  <name>WPT 033</name>
</trkpt>
<trkpt lat="53.844790812" lon="-1.858645918">
  <ele>137.743130</ele>
  <time>2016-07-20T23:32:15.832Z</time>
  <name>WPT 034</name>
</trkpt>
<trkpt lat="53.845001775" lon="-1.859192375">
  <ele>141.330605</ele>
  <time>2016-07-20T23:32:17.728Z</time>
  <name>WPT 035</name>
</trkpt>
<trkpt lat="53.844970443" lon="-1.860067949">
  <ele>142.799177</ele>
  <time>2016-07-20T23:32:45.005Z</time>
  <name>WPT 036</name>
</trkpt>
<trkpt lat="53.845068341" lon="-1.860778942">
  <ele>146.013348</ele>
  <time>2016-07-20T23:33:12.828Z</time>
  <name>WPT 037</name>
</trkpt>
<trkpt lat="53.845166172" lon="-1.861435221">
  <ele>149.205550</ele>
  <time>2016-07-20T23:33:14.724Z</time>
  <name>WPT 038</name>
</trkpt>
<trkpt lat="53.845215495" lon="-1.862119022">
  <ele>151.329261</ele>
  <time>2016-07-20T23:33:16.874Z</time>
  <name>WPT 039</name>
</trkpt>
<trkpt lat="53.845216028" lon="-1.862584115">
  <ele>152.097987</ele>
  <time>2016-07-20T23:33:18.616Z</time>
  <name>WPT 040</name>
</trkpt>
<trkpt lat="53.845151753" lon="-1.862967344">
  <ele>151.464462</ele>
  <time>2016-07-20T23:33:20.008Z</time>
  <name>WPT 041</name>
</trkpt>
<trkpt lat="53.844877186" lon="-1.863378616">
  <ele>147.318207</ele>
  <time>2016-07-20T23:33:21.746Z</time>
  <name>WPT 042</name>
</trkpt>
<trkpt lat="53.844796760" lon="-1.863789251">
  <ele>147.668960</ele>
  <time>2016-07-20T23:33:23.386Z</time>
  <name>WPT 043</name>
</trkpt>
<trkpt lat="53.844765487" lon="-1.864746891">
  <ele>151.639386</ele>
  <time>2016-07-20T23:33:29.394Z</time>
  <name>WPT 044</name>
</trkpt>
<trkpt lat="53.844604501" lon="-1.865458722">
  <ele>151.620464</ele>
  <time>2016-07-20T23:33:49.249Z</time>
  <name>WPT 045</name>
</trkpt>
<trkpt lat="53.844411429" lon="-1.866416871">
  <ele>152.239379</ele>
  <time>2016-07-20T23:33:51.666Z</time>
  <name>WPT 046</name>
</trkpt>
<trkpt lat="53.844202473" lon="-1.867648641">
  <ele>155.748271</ele>
  <time>2016-07-20T23:33:53.522Z</time>
  <name>WPT 047</name>
</trkpt>
<trkpt lat="53.844138722" lon="-1.868524292">
  <ele>159.245165</ele>
  <time>2016-07-20T23:33:55.105Z</time>
  <name>WPT 048</name>
</trkpt>
<trkpt lat="53.844155588" lon="-1.869153470">
  <ele>162.845165</ele>
  <time>2016-07-20T23:33:56.761Z</time>
  <name>WPT 049</name>
</trkpt>
<trkpt lat="53.843946130" lon="-1.869947496">
  <ele>161.461721</ele>
  <time>2016-07-20T23:33:58.595Z</time>
  <name>WPT 050</name>
</trkpt>
<trkpt lat="53.843849059" lon="-1.869947797">
  <ele>159.733721</ele>
  <time>2016-07-20T23:34:00.169Z</time>
  <name>WPT 051</name>
</trkpt>
<trkpt lat="53.843719809" lon="-1.870112343">
  <ele>157.861721</ele>
  <time>2016-07-20T23:34:01.967Z</time>
  <name>WPT 052</name>
</trkpt>
<trkpt lat="53.843768433" lon="-1.870194265">
  <ele>158.941721</ele>
  <time>2016-07-20T23:34:03.963Z</time>
  <name>WPT 053</name>
</trkpt>
<trkpt lat="53.843339969" lon="-1.870441807">
  <ele>152.794213</ele>
  <time>2016-07-20T23:34:10.063Z</time>
  <name>WPT 054</name>
</trkpt>
<trkpt lat="53.842968277" lon="-1.870825953">
  <ele>148.333305</ele>
  <time>2016-07-20T23:34:12.229Z</time>
  <name>WPT 055</name>
</trkpt>
<trkpt lat="53.842305693" lon="-1.871511908">
  <ele>145.919445</ele>
  <time>2016-07-20T23:34:14.167Z</time>
  <name>WPT 056</name>
</trkpt>
<trkpt lat="53.842224859" lon="-1.871566869">
  <ele>146.063445</ele>
  <time>2016-07-20T23:34:15.909Z</time>
  <name>WPT 057</name>
</trkpt>
<trkpt lat="53.841480882" lon="-1.871787994">
  <ele>147.516155</ele>
  <time>2016-07-20T23:34:18.283Z</time>
  <name>WPT 058</name>
</trkpt>
<trkpt lat="53.841351367" lon="-1.871706322">
  <ele>147.657601</ele>
  <time>2016-07-20T23:34:20.220Z</time>
  <name>WPT 059</name>
</trkpt>
<trkpt lat="53.841237825" lon="-1.871433110">
  <ele>147.158010</ele>
  <time>2016-07-20T23:34:22.088Z</time>
  <name>WPT 060</name>
</trkpt>
<trkpt lat="53.841157166" lon="-1.871652204">
  <ele>148.051641</ele>
  <time>2016-07-20T23:34:27.627Z</time>
  <name>WPT 061</name>
</trkpt>
<trkpt lat="53.841076157" lon="-1.871543028">
  <ele>147.938796</ele>
  <time>2016-07-20T23:34:29.551Z</time>
  <name>WPT 062</name>
</trkpt>
<trkpt lat="53.841172846" lon="-1.871187106">
  <ele>146.575871</ele>
  <time>2016-07-20T23:34:31.357Z</time>
  <name>WPT 063</name>
</trkpt>
<trkpt lat="53.841204762" lon="-1.870776669">
  <ele>145.226578</ele>
  <time>2016-07-20T23:34:32.899Z</time>
  <name>WPT 064</name>
</trkpt>
<trkpt lat="53.840961967" lon="-1.870667993">
  <ele>145.200856</ele>
  <time>2016-07-20T23:34:34.948Z</time>
  <name>WPT 065</name>
</trkpt>
<trkpt lat="53.840346889" lon="-1.870396335">
  <ele>143.193081</ele>
  <time>2016-07-20T23:34:36.906Z</time>
  <name>WPT 066</name>
</trkpt>
<trkpt lat="53.839003778" lon="-1.870126938">
  <ele>138.120344</ele>
  <time>2016-07-20T23:34:40.780Z</time>
  <name>WPT 067</name>
</trkpt>
<trkpt lat="53.838639643" lon="-1.870018647">
  <ele>136.473344</ele>
  <time>2016-07-20T23:34:46.878Z</time>
  <name>WPT 068</name>
</trkpt>
<trkpt lat="53.838234973" lon="-1.869828423">
  <ele>134.367344</ele>
  <time>2016-07-20T23:34:48.654Z</time>
  <name>WPT 069</name>
</trkpt>
<trkpt lat="53.838040712" lon="-1.869719610">
  <ele>133.396827</ele>
  <time>2016-07-20T23:34:55.563Z</time>
  <name>WPT 070</name>
</trkpt>
<trkpt lat="53.837586999" lon="-1.869064533">
  <ele>129.889794</ele>
  <time>2016-07-20T23:34:57.689Z</time>
  <name>WPT 071</name>
</trkpt>
<trkpt lat="53.837246742" lon="-1.868600587">
  <ele>127.412714</ele>
  <time>2016-07-20T23:35:00.065Z</time>
  <name>WPT 072</name>
</trkpt>
<trkpt lat="53.836744397" lon="-1.867863628">
  <ele>126.150639</ele>
  <time>2016-07-20T23:35:02.906Z</time>
  <name>WPT 073</name>
</trkpt>
<trkpt lat="53.836525565" lon="-1.867481377">
  <ele>126.821295</ele>
  <time>2016-07-20T23:35:12.922Z</time>
  <name>WPT 074</name>
</trkpt>
<trkpt lat="53.836395956" lon="-1.867317669">
  <ele>127.518355</ele>
  <time>2016-07-20T23:35:17.322Z</time>
  <name>WPT 075</name>
</trkpt>
<trkpt lat="53.836395623" lon="-1.867016790">
  <ele>127.907071</ele>
  <time>2016-07-20T23:35:18.784Z</time>
  <name>WPT 076</name>
</trkpt>
<trkpt lat="53.836120436" lon="-1.866880899">
  <ele>129.765169</ele>
  <time>2016-07-20T23:35:20.602Z</time>
  <name>WPT 077</name>
</trkpt>
<trkpt lat="53.835845311" lon="-1.866799714">
  <ele>131.612746</ele>
  <time>2016-07-20T23:35:22.404Z</time>
  <name>WPT 078</name>
</trkpt>
<trkpt lat="53.835327659" lon="-1.866856061">
  <ele>135.049829</ele>
  <time>2016-07-20T23:35:24.789Z</time>
  <name>WPT 079</name>
</trkpt>
<trkpt lat="53.834583326" lon="-1.866749015">
  <ele>141.322743</ele>
  <time>2016-07-20T23:35:26.795Z</time>
  <name>WPT 080</name>
</trkpt>
<trkpt lat="53.834097971" lon="-1.866750556">
  <ele>144.737660</ele>
  <time>2016-07-20T23:35:29.307Z</time>
  <name>WPT 081</name>
</trkpt>
<trkpt lat="53.834081944" lon="-1.866887363">
  <ele>144.871429</ele>
  <time>2016-07-20T23:35:32.421Z</time>
  <name>WPT 082</name>
</trkpt>
<trkpt lat="53.833612767" lon="-1.866888850">
  <ele>148.350392</ele>
  <time>2016-07-20T23:35:35.763Z</time>
  <name>WPT 083</name>
</trkpt>
<trkpt lat="53.833612494" lon="-1.866642693">
  <ele>148.038964</ele>
  <time>2016-07-20T23:35:37.898Z</time>
  <name>WPT 084</name>
</trkpt>
<trkpt lat="53.834047602" lon="-1.865109640">
  <ele>154.678367</ele>
  <time>2016-07-20T23:35:42.468Z</time>
  <name>WPT 085</name>
</trkpt>
<trkpt lat="53.834177060" lon="-1.865136575">
  <ele>153.197982</ele>
  <time>2016-07-20T23:35:44.294Z</time>
  <name>WPT 086</name>
</trkpt>
<trkpt lat="53.834274101" lon="-1.865108912">
  <ele>152.473192</ele>
  <time>2016-07-20T23:35:45.696Z</time>
  <name>WPT 087</name>
</trkpt>
<trkpt lat="53.834257368" lon="-1.864616641">
  <ele>156.507971</ele>
  <time>2016-07-20T23:35:51.712Z</time>
  <name>WPT 088</name>
</trkpt>
<trkpt lat="53.834013530" lon="-1.864669900">
  <ele>158.744486</ele>
  <time>2016-07-20T23:35:53.528Z</time>
  <name>WPT 089</name>
</trkpt>
<trkpt lat="53.833730346" lon="-1.864617630">
  <ele>162.202427</ele>
  <time>2016-07-20T23:35:54.983Z</time>
  <name>WPT 090</name>
</trkpt>
<trkpt lat="53.833855819" lon="-1.864298129">
  <ele>163.108877</ele>
  <time>2016-07-20T23:35:56.615Z</time>
  <name>WPT 091</name>
</trkpt>
<trkpt lat="53.834106942" lon="-1.863818669">
  <ele>164.377442</ele>
  <time>2016-07-20T23:35:58.800Z</time>
  <name>WPT 092</name>
</trkpt>
<trkpt lat="53.834232049" lon="-1.863180065">
  <ele>168.398838</ele>
  <time>2016-07-20T23:36:01.854Z</time>
  <name>WPT 093</name>
</trkpt>
<trkpt lat="53.834200044" lon="-1.862701520">
  <ele>170.100859</ele>
  <time>2016-07-20T23:36:03.068Z</time>
  <name>WPT 094</name>
</trkpt>
<trkpt lat="53.833632083" lon="-1.861214269">
  <ele>175.876784</ele>
  <time>2016-07-20T23:36:03.368Z</time>
  <name>WPT 095</name>
</trkpt>
<trkpt lat="53.833095250" lon="-1.859461044">
  <ele>179.401498</ele>
  <time>2016-07-20T23:36:03.537Z</time>
  <name>WPT 096</name>
</trkpt>
<trkpt lat="53.832463702" lon="-1.857442280">
  <ele>182.306928</ele>
  <time>2016-07-20T23:36:04.372Z</time>
  <name>WPT 097</name>
</trkpt>
<trkpt lat="53.833562129" lon="-1.855258072">
  <ele>178.178105</ele>
  <time>2016-07-20T23:36:06.172Z</time>
  <name>WPT 098</name>
</trkpt>
<trkpt lat="53.833782657" lon="-1.855523225">
  <ele>177.562285</ele>
  <time>2016-07-20T23:36:08.311Z</time>
  <name>WPT 099</name>
</trkpt>
<trkpt lat="53.835481656" lon="-1.855730117">
  <ele>172.080393</ele>
  <time>2016-07-20T23:36:11.017Z</time>
  <name>WPT 100</name>
</trkpt>
<trkpt lat="53.836109793" lon="-1.854876989">
  <ele>172.136191</ele>
  <time>2016-07-20T23:36:12.711Z</time>
  <name>WPT 101</name>
</trkpt>
<trkpt lat="53.837238213" lon="-1.854212759">
  <ele>171.916509</ele>
  <time>2016-07-20T23:36:21.277Z</time>
  <name>WPT 102</name>
</trkpt>
<trkpt lat="53.837504492" lon="-1.853664764">
  <ele>168.392728</ele>
  <time>2016-07-20T23:36:27.042Z</time>
  <name>WPT 103</name>
</trkpt>
<trkpt lat="53.837552560" lon="-1.853281647">
  <ele>167.764518</ele>
  <time>2016-07-20T23:36:28.890Z</time>
  <name>WPT 104</name>
</trkpt>
<trkpt lat="53.838392599" lon="-1.852266609">
  <ele>157.535348</ele>
  <time>2016-07-20T23:36:30.952Z</time>
  <name>WPT 105</name>
</trkpt>
<trkpt lat="53.838457010" lon="-1.852020195">
  <ele>156.180868</ele>
  <time>2016-07-20T23:36:32.578Z</time>
  <name>WPT 106</name>
</trkpt>
<trkpt lat="53.838504565" lon="-1.851226757">
  <ele>155.735166</ele>
  <time>2016-07-20T23:36:34.270Z</time>
  <name>WPT 107</name>
</trkpt>
<trkpt lat="53.838682188" lon="-1.850952584">
  <ele>151.505481</ele>
  <time>2016-07-20T23:36:36.248Z</time>
  <name>WPT 108</name>
</trkpt>
<trkpt lat="53.838972993" lon="-1.850623298">
  <ele>143.412738</ele>
  <time>2016-07-20T23:36:37.610Z</time>
  <name>WPT 109</name>
</trkpt>
<trkpt lat="53.839392164" lon="-1.849445552">
  <ele>126.882333</ele>
  <time>2016-07-20T23:36:39.466Z</time>
  <name>WPT 110</name>
</trkpt>
<trkpt lat="53.839585721" lon="-1.848979825">
  <ele>119.351926</ele>
  <time>2016-07-20T23:36:41.310Z</time>
  <name>WPT 111</name>
</trkpt>
<trkpt lat="53.839553088" lon="-1.848761104">
  <ele>119.251723</ele>
  <time>2016-07-20T23:36:42.844Z</time>
  <name>WPT 112</name>
</trkpt>
<trkpt lat="53.839843368" lon="-1.848021472">
  <ele>109.496524</ele>
  <time>2016-07-20T23:36:44.268Z</time>
  <name>WPT 113</name>
</trkpt>
<trkpt lat="53.840229946" lon="-1.846679663">
  <ele>101.080038</ele>
  <time>2016-07-20T23:36:45.986Z</time>
  <name>WPT 114</name>
</trkpt>
<trkpt lat="53.840714074" lon="-1.845720448">
  <ele>94.430932</ele>
  <time>2016-07-20T23:36:47.630Z</time>
  <name>WPT 115</name>
</trkpt>
<trkpt lat="53.841004228" lon="-1.844898707">
  <ele>89.467836</ele>
  <time>2016-07-20T23:36:49.456Z</time>
  <name>WPT 116</name>
</trkpt>
<trkpt lat="53.841780229" lon="-1.844458139">
  <ele>86.625779</ele>
  <time>2016-07-20T23:36:51.879Z</time>
  <name>WPT 117</name>
</trkpt>
<trkpt lat="53.842071122" lon="-1.844210852">
  <ele>85.976537</ele>
  <time>2016-07-20T23:36:53.916Z</time>
  <name>WPT 118</name>
</trkpt>
<trkpt lat="53.842426835" lon="-1.844045391">
  <ele>85.198803</ele>
  <time>2016-07-20T23:36:55.730Z</time>
  <name>WPT 119</name>
</trkpt>
<trkpt lat="53.842231695" lon="-1.843280132">
  <ele>84.904872</ele>
  <time>2016-07-20T23:37:01.843Z</time>
  <name>WPT 120</name>
</trkpt>
<trkpt lat="53.842247265" lon="-1.842815011">
  <ele>84.827839</ele>
  <time>2016-07-20T23:37:04.704Z</time>
  <name>WPT 121</name>
</trkpt>
<trkpt lat="53.842343798" lon="-1.842404300">
  <ele>84.433505</ele>
  <time>2016-07-20T23:37:06.081Z</time>
  <name>WPT 122</name>
</trkpt>
<trkpt lat="53.842262330" lon="-1.841966900">
  <ele>84.688760</ele>
  <time>2016-07-20T23:37:07.865Z</time>
  <name>WPT 123</name>
</trkpt>
<trkpt lat="53.842278328" lon="-1.841830056">
  <ele>84.590245</ele>
  <time>2016-07-20T23:37:15.531Z</time>
  <name>WPT 124</name>
</trkpt>
<trkpt lat="53.842035254" lon="-1.841530051">
  <ele>85.523531</ele>
  <time>2016-07-20T23:37:17.737Z</time>
  <name>WPT 125</name>
</trkpt>
<trkpt lat="53.841953711" lon="-1.841037943">
  <ele>85.614113</ele>
  <time>2016-07-20T23:37:20.108Z</time>
  <name>WPT 126</name>
</trkpt>
<trkpt lat="53.841952730" lon="-1.840299324">
  <ele>85.055268</ele>
  <time>2016-07-20T23:37:21.927Z</time>
  <name>WPT 127</name>
</trkpt>
<trkpt lat="53.843237860" lon="-1.839501073">
  <ele>78.888525</ele>
  <time>2016-07-20T23:37:27.267Z</time>
  <name>WPT 128</name>
</trkpt>
<trkpt lat="53.843609855" lon="-1.839417578">
  <ele>78.239137</ele>
  <time>2016-07-20T23:37:30.603Z</time>
  <name>WPT 129</name>
</trkpt>
<trkpt lat="53.843852715" lon="-1.839553437">
  <ele>78.927643</ele>
  <time>2016-07-20T23:37:31.919Z</time>
  <name>WPT 130</name>
</trkpt>
<trkpt lat="53.844402819" lon="-1.839578692">
  <ele>80.486605</ele>
  <time>2016-07-20T23:37:33.505Z</time>
  <name>WPT 131</name>
</trkpt>
<trkpt lat="53.844450952" lon="-1.839277569">
  <ele>81.306236</ele>
  <time>2016-07-20T23:37:34.977Z</time>
  <name>WPT 132</name>
</trkpt>
<trkpt lat="53.844644837" lon="-1.839085319">
  <ele>83.226289</ele>
  <time>2016-07-20T23:37:41.507Z</time>
  <name>WPT 133</name>
</trkpt>
<trkpt lat="53.845048821" lon="-1.838728110">
  <ele>86.981104</ele>
  <time>2016-07-20T23:37:43.093Z</time>
  <name>WPT 134</name>
</trkpt>
<trkpt lat="53.845356212" lon="-1.838726929">
  <ele>89.207218</ele>
  <time>2016-07-20T23:37:44.275Z</time>
  <name>WPT 135</name>
</trkpt>
<trkpt lat="53.845566752" lon="-1.838890273">
  <ele>90.260452</ele>
  <time>2016-07-20T23:37:45.517Z</time>
  <name>WPT 136</name>
</trkpt>
<trkpt lat="53.845825974" lon="-1.839162867">
  <ele>91.446035</ele>
  <time>2016-07-20T23:37:46.869Z</time>
  <name>WPT 137</name>
</trkpt>
<trkpt lat="53.846343758" lon="-1.839215601">
  <ele>94.133316</ele>
  <time>2016-07-20T23:37:49.372Z</time>
  <name>WPT 138</name>
</trkpt>
<trkpt lat="53.846553601" lon="-1.838859124">
  <ele>95.069316</ele>
  <time>2016-07-20T23:37:51.000Z</time>
  <name>WPT 139</name>
</trkpt>
<trkpt lat="53.846796058" lon="-1.838694036">
  <ele>95.642943</ele>
  <time>2016-07-20T23:37:52.452Z</time>
  <name>WPT 140</name>
</trkpt>
<trkpt lat="53.847054839" lon="-1.838638321">
  <ele>96.461350</ele>
  <time>2016-07-20T23:37:53.906Z</time>
  <name>WPT 141</name>
</trkpt>
<trkpt lat="53.847272880" lon="-1.838363884">
  <ele>95.986963</ele>
  <time>2016-07-20T23:38:02.307Z</time>
  <name>WPT 142</name>
</trkpt>
<trkpt lat="53.847467096" lon="-1.838417856">
  <ele>95.521371</ele>
  <time>2016-07-20T23:38:04.593Z</time>
  <name>WPT 143</name>
</trkpt>
<trkpt lat="53.847871999" lon="-1.838744620">
  <ele>94.500726</ele>
  <time>2016-07-20T23:38:06.988Z</time>
  <name>WPT 144</name>
</trkpt>
<trkpt lat="53.847977195" lon="-1.838771576">
  <ele>94.167277</ele>
  <time>2016-07-20T23:38:12.693Z</time>
  <name>WPT 145</name>
</trkpt>
<trkpt lat="53.847871890" lon="-1.838662528">
  <ele>94.481860</ele>
  <time>2016-07-20T23:38:28.015Z</time>
  <name>WPT 146</name>
<extensions>
        <drawing v="True" pv="False" pw="4" pc="255|255|255" pt="0" lv="True" lw="4" lc="255|0|0" lt="0" ls="0" lcs="3" fc="255|255|255" ft="120" fs="-1" fsc="0|0|0" xmlns="" />
      </extensions>
</trkpt>
</trkseg>
</trk>
</gpx>
